createdAt,value
2023-04-28T00:01:46.029Z,1.00
2023-04-28T00:04:13.596Z,1.10
2023-04-28T00:08:13.257Z,1.20
2023-04-28T00:10:40.469Z,1.00
2023-04-28T00:13:07.632Z,1.10
2023-04-28T00:15:34.809Z,1.30
2023-04-28T00:18:01.917Z,1.00
2023-04-28T00:20:28.951Z,1.40
2023-04-28T00:22:56.010Z,0.90
2023-04-28T00:25:23.367Z,1.00
2023-04-28T00:27:50.474Z,1.10
2023-04-28T00:30:17.880Z,1.10
2023-04-28T00:32:45.015Z,1.30
2023-04-28T00:35:12.280Z,0.80
2023-04-28T00:37:39.621Z,1.00
2023-04-28T00:40:07.801Z,1.10
2023-04-28T00:42:35.098Z,0.80
2023-04-28T00:45:06.158Z,1.00
2023-04-28T00:47:34.729Z,1.40
2023-04-28T00:50:02.400Z,1.00
2023-04-28T00:52:29.976Z,0.70
2023-04-28T00:54:57.126Z,0.80
2023-04-28T00:57:24.155Z,1.10
2023-04-28T00:59:51.282Z,1.40
2023-04-28T01:02:20.515Z,0.90
2023-04-28T01:04:48.507Z,1.10
2023-04-28T01:07:15.784Z,0.80
2023-04-28T01:09:44.239Z,1.00
2023-04-28T01:12:12.392Z,0.70
2023-04-28T01:14:44.432Z,1.00
2023-04-28T01:17:11.867Z,0.80
2023-04-28T01:19:39.023Z,1.10
2023-04-28T01:22:06.792Z,1.20
2023-04-28T01:24:34.043Z,1.10
2023-04-28T01:27:03.824Z,0.70
2023-04-28T01:29:31.283Z,1.10
2023-04-28T01:31:58.529Z,1.30
2023-04-28T01:34:25.672Z,1.10
2023-04-28T01:36:52.900Z,1.00
2023-04-28T01:39:19.929Z,1.20
2023-04-28T01:41:47.202Z,1.00
2023-04-28T01:44:14.638Z,1.10
2023-04-28T01:49:09.139Z,1.20
2023-04-28T01:51:36.179Z,1.10
2023-04-28T01:54:03.452Z,0.90
2023-04-28T01:56:30.579Z,0.90
2023-04-28T01:58:58.129Z,1.00
2023-04-28T02:01:25.638Z,0.80
2023-04-28T02:03:53.150Z,0.90
2023-04-28T02:06:20.747Z,0.70
2023-04-28T02:08:47.769Z,1.20
2023-04-28T02:11:14.821Z,1.00
2023-04-28T02:13:41.923Z,0.90
2023-04-28T02:16:09.937Z,1.00
2023-04-28T02:18:37.865Z,0.80
2023-04-28T02:21:12.070Z,1.10
2023-04-28T02:23:39.856Z,0.90
2023-04-28T02:26:06.948Z,1.20
2023-04-28T02:28:34.138Z,0.70
2023-04-28T02:31:09.014Z,0.80
2023-04-28T02:33:36.674Z,0.90
2023-04-28T02:36:04.528Z,1.20
2023-04-28T02:38:31.694Z,0.90
2023-04-28T02:41:00.319Z,1.00
2023-04-28T02:43:31.430Z,1.10
2023-04-28T02:45:58.401Z,0.90
2023-04-28T02:48:26.215Z,0.70
2023-04-28T02:50:53.478Z,1.00
2023-04-28T02:53:21.089Z,1.10
2023-04-28T02:55:48.752Z,0.80
2023-04-28T02:58:16.338Z,0.90
2023-04-28T03:00:43.412Z,1.00
2023-04-28T03:03:10.968Z,1.10
2023-04-28T03:05:38.228Z,0.80
2023-04-28T03:08:06.395Z,0.90
2023-04-28T03:10:33.660Z,0.80
2023-04-28T03:13:01.151Z,0.80
2023-04-28T03:15:29.170Z,0.90
2023-04-28T03:17:56.474Z,0.90
2023-04-28T03:20:24.549Z,0.90
2023-04-28T03:22:51.875Z,0.90
2023-04-28T03:25:19.029Z,0.90
2023-04-28T03:27:51.108Z,0.70
2023-04-28T03:30:18.301Z,0.80
2023-04-28T03:32:46.567Z,1.20
2023-04-28T03:35:13.967Z,0.80
2023-04-28T03:37:41.463Z,0.80
2023-04-28T03:40:09.467Z,1.10
2023-04-28T03:43:15.444Z,0.70
2023-04-28T03:46:08.951Z,0.80
2023-04-28T03:48:36.294Z,0.80
2023-04-28T03:51:03.660Z,0.90
2023-04-28T03:53:32.023Z,0.70
2023-04-28T03:55:59.363Z,1.20
2023-04-28T03:58:26.562Z,0.70
2023-04-28T04:00:54.400Z,1.10
2023-04-28T04:03:23.236Z,0.80
2023-04-28T04:05:50.881Z,0.90
2023-04-28T04:08:18.440Z,0.90
2023-04-28T04:10:45.573Z,0.90
2023-04-28T04:13:12.934Z,1.10
2023-04-28T04:15:41.349Z,0.90
2023-04-28T04:18:08.963Z,1.00
2023-04-28T04:20:53.897Z,0.90
2023-04-28T04:23:21.118Z,0.90
2023-04-28T04:25:48.991Z,1.00
2023-04-28T04:28:16.694Z,1.00
2023-04-28T04:30:43.870Z,1.10
2023-04-28T04:33:10.944Z,0.80
2023-04-28T04:35:38.178Z,0.90
2023-04-28T04:38:05.317Z,1.10
2023-04-28T04:40:33.058Z,1.20
2023-04-28T04:43:01.290Z,0.70
2023-04-28T04:45:30.892Z,0.90
2023-04-28T04:47:58.364Z,1.00
2023-04-28T04:50:25.759Z,1.20
2023-04-28T04:55:23.981Z,1.10
2023-04-28T04:57:52.589Z,1.20
2023-04-28T05:00:25.763Z,1.00
2023-04-28T05:02:53.359Z,1.40
2023-04-28T05:05:22.868Z,1.00
2023-04-28T05:08:04.443Z,1.40
2023-04-28T05:10:31.935Z,1.40
2023-04-28T05:12:59.090Z,1.10
2023-04-28T05:15:26.830Z,1.10
2023-04-28T05:18:14.404Z,0.90
2023-04-28T05:20:41.649Z,1.00
2023-04-28T05:23:09.646Z,1.10
2023-04-28T05:25:37.044Z,0.90
2023-04-28T05:28:07.764Z,1.10
2023-04-28T05:30:34.999Z,1.30
2023-04-28T05:33:02.357Z,1.20
2023-04-28T05:35:31.345Z,0.90
2023-04-28T05:37:59.553Z,1.00
2023-04-28T05:40:28.248Z,1.00
2023-04-28T05:42:56.438Z,1.20
2023-04-28T05:45:23.537Z,1.40
2023-04-28T05:47:51.034Z,1.00
2023-04-28T05:50:18.325Z,0.90
2023-04-28T05:52:45.468Z,0.90
2023-04-28T05:55:12.698Z,0.80
2023-04-28T05:57:49.817Z,1.00
2023-04-28T06:00:21.522Z,1.00
2023-04-28T06:02:49.961Z,0.90
2023-04-28T06:05:17.870Z,1.00
2023-04-28T06:07:48.216Z,1.10
2023-04-28T06:10:17.059Z,1.10
2023-04-28T06:12:44.157Z,0.90
2023-04-28T06:15:11.820Z,1.00
2023-04-28T06:20:07.789Z,1.00
2023-04-28T06:22:34.778Z,1.10
2023-04-28T06:25:01.824Z,1.10
2023-04-28T06:27:34.759Z,0.80
2023-04-28T06:30:01.861Z,0.90
2023-04-28T06:32:29.229Z,0.80
2023-04-28T06:34:58.374Z,0.60
2023-04-28T06:37:26.267Z,0.90
2023-04-28T06:39:53.493Z,0.70
2023-04-28T06:42:20.770Z,0.60
2023-04-28T06:44:59.541Z,0.80
2023-04-28T06:47:28.033Z,0.90
2023-04-28T06:49:55.473Z,0.80
2023-04-28T06:52:27.116Z,1.00
2023-04-28T06:54:59.992Z,1.20
2023-04-28T06:57:27.011Z,0.80
2023-04-28T06:59:55.025Z,1.10
2023-04-28T07:02:22.358Z,0.80
2023-04-28T07:04:49.958Z,0.80
2023-04-28T07:07:17.001Z,0.90
2023-04-28T07:09:44.949Z,0.80
2023-04-28T07:12:12.206Z,1.00
2023-04-28T07:14:39.508Z,0.90
2023-04-28T07:17:06.704Z,0.90
2023-04-28T07:19:33.951Z,0.90
2023-04-28T07:22:00.992Z,0.90
2023-04-28T07:24:28.591Z,0.90
2023-04-28T07:26:56.001Z,1.10
2023-04-28T07:29:23.725Z,0.60
2023-04-28T07:31:50.907Z,1.20
2023-04-28T07:34:18.387Z,0.70
2023-04-28T07:36:46.013Z,0.60
2023-04-28T07:39:13.140Z,0.90
2023-04-28T07:41:40.704Z,0.90
2023-04-28T07:44:08.488Z,0.90
2023-04-28T07:46:35.630Z,1.10
2023-04-28T07:49:03.332Z,0.90
2023-04-28T07:51:31.866Z,0.60
2023-04-28T07:53:59.059Z,0.70
2023-04-28T07:56:26.760Z,0.80
2023-04-28T07:58:53.768Z,0.70
2023-04-28T08:01:20.751Z,0.50
2023-04-28T08:03:48.163Z,0.60
2023-04-28T08:06:15.758Z,0.50
2023-04-28T08:08:43.073Z,0.60
2023-04-28T08:11:10.174Z,0.80
2023-04-28T08:13:37.256Z,0.60
2023-04-28T08:16:04.756Z,0.60
2023-04-28T08:18:32.138Z,0.80
2023-04-28T08:20:59.212Z,0.80
2023-04-28T08:23:28.531Z,0.70
2023-04-28T08:25:55.584Z,0.60
2023-04-28T08:28:22.709Z,0.50
2023-04-28T08:30:49.924Z,0.80
2023-04-28T08:33:17.235Z,0.70
2023-04-28T08:35:44.356Z,0.60
2023-04-28T08:38:14.290Z,0.70
2023-04-28T08:40:43.134Z,0.60
2023-04-28T08:43:15.138Z,0.70
2023-04-28T08:45:43.219Z,0.80
2023-04-28T08:48:20.796Z,0.90
2023-04-28T08:50:55.011Z,0.50
2023-04-28T08:53:26.748Z,0.60
2023-04-28T08:55:57.057Z,0.70
2023-04-28T08:58:25.154Z,0.70
2023-04-28T09:00:53.878Z,0.80
2023-04-28T09:03:21.811Z,0.60
2023-04-28T09:08:16.560Z,0.70
2023-04-28T09:10:43.903Z,0.90
2023-04-28T09:13:10.961Z,0.60
2023-04-28T09:15:41.467Z,0.80
2023-04-28T09:18:08.759Z,0.70
2023-04-28T09:20:36.428Z,0.60
2023-04-28T09:23:17.688Z,0.60
2023-04-28T09:26:00.736Z,0.40
2023-04-28T09:28:28.540Z,0.60
2023-04-28T09:30:55.623Z,0.70
2023-04-28T09:33:22.863Z,0.90
2023-04-28T09:35:50.278Z,0.70
2023-04-28T09:38:17.625Z,1.00
2023-04-28T09:40:54.817Z,0.80
2023-04-28T09:43:33.031Z,0.90
2023-04-28T09:46:04.700Z,0.50
2023-04-28T09:48:36.463Z,0.60
2023-04-28T09:51:08.122Z,0.70
2023-04-28T09:53:35.876Z,0.80
2023-04-28T09:56:03.786Z,0.60
2023-04-28T10:00:59.162Z,0.60
2023-04-28T10:03:29.591Z,0.50
2023-04-28T10:05:58.648Z,0.70
2023-04-28T10:08:27.573Z,0.60
2023-04-28T10:10:54.930Z,0.60
2023-04-28T10:13:22.952Z,0.70
2023-04-28T10:20:46.303Z,0.80
2023-04-28T10:23:38.518Z,0.70
2023-04-28T10:26:10.564Z,0.40
2023-04-28T10:28:37.743Z,0.60
2023-04-28T10:31:35.197Z,0.50
2023-04-28T10:34:22.217Z,0.70
2023-04-28T10:36:54.827Z,0.60
2023-04-28T10:39:21.988Z,0.70
2023-04-28T10:41:49.458Z,0.60
2023-04-28T10:44:29.291Z,0.60
2023-04-28T10:47:04.012Z,0.80
2023-04-28T10:49:59.273Z,0.50
2023-04-28T10:52:41.497Z,0.70
2023-04-28T10:55:36.637Z,0.50
2023-04-28T10:58:17.681Z,0.70
2023-04-28T11:00:48.445Z,1.00
2023-04-28T11:03:51.402Z,0.70
2023-04-28T11:06:35.795Z,0.60
2023-04-28T11:09:15.628Z,0.50
2023-04-28T11:11:56.345Z,0.80
2023-04-28T11:14:23.496Z,0.50
2023-04-28T11:16:56.595Z,0.50
2023-04-28T11:19:31.026Z,0.60
2023-04-28T11:21:59.385Z,0.60
2023-04-28T11:24:27.524Z,0.70
2023-04-28T11:29:33.617Z,0.70
2023-04-28T11:32:01.086Z,0.70
2023-04-28T11:34:28.936Z,0.50
2023-04-28T11:36:56.155Z,0.40
2023-04-28T11:39:30.425Z,0.50
2023-04-28T11:42:02.554Z,0.70
2023-04-28T11:44:30.856Z,0.70
2023-04-28T11:47:02.613Z,0.50
2023-04-28T11:49:31.563Z,0.60
2023-04-28T11:52:00.561Z,0.50
2023-04-28T11:54:28.604Z,0.90
2023-04-28T11:56:57.685Z,0.60
2023-04-28T11:59:31.498Z,0.50
2023-04-28T12:01:59.822Z,0.50
2023-04-28T12:04:38.079Z,0.60
2023-04-28T12:07:16.433Z,0.60
2023-04-28T12:09:45.971Z,0.80
2023-04-28T12:12:40.122Z,0.70
2023-04-28T12:15:16.413Z,0.60
2023-04-28T12:17:45.729Z,0.50
2023-04-28T12:20:33.424Z,0.80
2023-04-28T12:24:22.686Z,0.70
2023-04-28T12:26:49.834Z,0.60
2023-04-28T12:29:37.438Z,0.80
2023-04-28T12:34:33.659Z,0.40
2023-04-28T12:37:01.815Z,0.70
2023-04-28T12:39:29.215Z,0.60
2023-04-28T12:41:56.314Z,0.50
2023-04-28T12:44:23.628Z,0.70
2023-04-28T12:46:51.786Z,0.40
2023-04-28T12:49:18.996Z,0.70
2023-04-28T12:51:46.283Z,0.80
2023-04-28T12:54:14.639Z,0.60
2023-04-28T12:56:41.693Z,0.70
2023-04-28T12:59:08.777Z,0.80
2023-04-28T13:01:35.929Z,0.60
2023-04-28T13:04:03.258Z,0.70
2023-04-28T13:06:31.118Z,0.70
2023-04-28T13:08:58.451Z,0.60
2023-04-28T13:11:27.369Z,0.60
2023-04-28T13:13:54.605Z,0.70
2023-04-28T13:16:22.355Z,0.80
2023-04-28T13:18:49.629Z,1.10
2023-04-28T13:21:17.528Z,0.70
2023-04-28T13:26:11.766Z,0.80
2023-04-28T13:28:39.179Z,0.80
2023-04-28T13:31:06.632Z,0.60
2023-04-28T13:33:33.735Z,0.80
2023-04-28T13:36:00.862Z,0.50
2023-04-28T13:38:28.197Z,0.90
2023-04-28T13:40:55.622Z,0.90
2023-04-28T13:43:23.415Z,0.70
2023-04-28T13:48:18.997Z,0.50
2023-04-28T13:50:46.523Z,0.60
2023-04-28T13:53:13.905Z,0.60
2023-04-28T13:55:41.116Z,0.70
2023-04-28T13:58:08.203Z,0.80
2023-04-28T14:00:35.200Z,0.60
2023-04-28T14:03:02.694Z,0.80
2023-04-28T14:05:36.097Z,0.50
2023-04-28T14:08:10.427Z,1.10
2023-04-28T14:10:37.485Z,0.70
2023-04-28T14:13:04.501Z,0.60
2023-04-28T14:15:32.767Z,0.50
2023-04-28T14:17:59.905Z,0.40
2023-04-28T14:20:28.115Z,0.80
2023-04-28T14:22:55.440Z,0.50
2023-04-28T14:25:22.492Z,0.60
2023-04-28T14:27:50.157Z,0.70
2023-04-28T14:30:17.591Z,0.80
2023-04-28T14:32:44.716Z,0.70
2023-04-28T14:35:12.663Z,0.70
2023-04-28T14:40:07.830Z,0.50
2023-04-28T14:45:07.556Z,0.80
2023-04-28T14:47:35.112Z,0.60
2023-04-28T14:50:02.245Z,0.60
2023-04-28T14:52:30.731Z,0.60
2023-04-28T14:54:58.040Z,0.90
2023-04-28T14:57:25.861Z,0.60
2023-04-28T15:02:21.823Z,0.50
2023-04-28T15:04:49.190Z,0.60
2023-04-28T15:07:16.642Z,0.90
2023-04-28T15:09:44.103Z,0.60
2023-04-28T15:12:11.156Z,0.70
2023-04-28T15:14:38.353Z,0.80
2023-04-28T15:17:05.583Z,0.80
2023-04-28T15:19:32.646Z,0.60
2023-04-28T15:22:00.008Z,0.80
2023-04-28T15:24:27.011Z,0.50
2023-04-28T15:26:54.576Z,0.50
2023-04-28T15:29:22.799Z,0.40
2023-04-28T15:31:50.732Z,0.80
2023-04-28T15:34:18.207Z,1.00
2023-04-28T15:36:45.428Z,0.70
2023-04-28T15:39:12.725Z,0.70
2023-04-28T15:41:40.031Z,0.80
2023-04-28T15:44:07.647Z,0.80
2023-04-28T15:46:34.746Z,0.70
2023-04-28T15:49:02.420Z,0.80
2023-04-28T15:51:29.935Z,0.60
2023-04-28T15:53:57.319Z,1.00
2023-04-28T15:56:24.681Z,0.70
2023-04-28T15:58:52.703Z,0.50
2023-04-28T16:01:19.780Z,0.50
2023-04-28T16:03:48.248Z,0.90
2023-04-28T16:06:15.692Z,0.50
2023-04-28T16:08:43.192Z,0.80
2023-04-28T16:11:17.870Z,0.60
2023-04-28T16:13:45.371Z,0.70
2023-04-28T16:16:14.795Z,0.80
2023-04-28T16:18:42.100Z,0.60
2023-04-28T16:21:09.201Z,0.90
2023-04-28T16:23:37.280Z,1.00
2023-04-28T16:26:04.538Z,0.90
2023-04-28T16:28:32.326Z,1.00
2023-04-28T16:30:59.699Z,0.90
2023-04-28T16:33:26.890Z,0.70
2023-04-28T16:35:55.964Z,0.90
2023-04-28T16:38:23.058Z,0.70
2023-04-28T16:40:50.991Z,0.80
2023-04-28T16:48:16.256Z,1.30
2023-04-28T16:50:43.374Z,1.10
2023-04-28T16:53:11.044Z,1.30
2023-04-28T16:55:38.376Z,1.10
2023-04-28T16:58:05.918Z,1.60
2023-04-28T17:00:32.974Z,1.30
2023-04-28T17:03:00.295Z,1.10
2023-04-28T17:05:27.688Z,1.20
2023-04-28T17:07:55.283Z,0.80
2023-04-28T17:10:22.800Z,0.80
2023-04-28T17:12:49.902Z,0.90
2023-04-28T17:15:19.918Z,1.30
2023-04-28T17:17:48.779Z,1.60
2023-04-28T17:20:18.208Z,1.40
2023-04-28T17:22:45.244Z,1.20
2023-04-28T17:25:12.863Z,1.50
2023-04-28T17:27:39.979Z,1.30
2023-04-28T17:30:10.253Z,1.00
2023-04-28T17:32:38.243Z,1.10
2023-04-28T17:35:06.198Z,1.30
2023-04-28T17:37:34.102Z,1.10
2023-04-28T17:44:57.542Z,0.90
2023-04-28T17:47:24.676Z,1.10
2023-04-28T17:49:52.036Z,1.20
2023-04-28T17:52:20.060Z,0.90
2023-04-28T17:54:47.298Z,1.30
2023-04-28T17:57:14.691Z,1.00
2023-04-28T17:59:42.751Z,1.20
2023-04-28T18:02:10.738Z,1.20
2023-04-28T18:04:38.370Z,1.40
2023-04-28T18:07:07.495Z,1.50
2023-04-28T18:09:34.780Z,1.60
2023-04-28T18:12:05.460Z,1.70
2023-04-28T18:14:32.625Z,1.40
2023-04-28T18:16:59.767Z,1.30
2023-04-28T18:19:28.022Z,1.20
2023-04-28T18:21:57.135Z,1.20
2023-04-28T18:24:24.859Z,1.20
2023-04-28T18:26:51.958Z,1.30
2023-04-28T18:29:20.554Z,1.40
2023-04-28T18:31:47.773Z,1.60
2023-04-28T18:34:15.232Z,2.10
2023-04-28T18:36:42.355Z,2.30
2023-04-28T18:39:10.274Z,2.60
2023-04-28T18:41:37.990Z,2.50
2023-04-28T18:44:05.110Z,1.90
2023-04-28T18:46:32.924Z,2.50
2023-04-28T18:48:59.995Z,2.30
2023-04-28T18:51:27.242Z,2.30
2023-04-28T18:53:54.318Z,1.90
2023-04-28T18:58:51.477Z,1.30
2023-04-28T19:01:18.784Z,1.70
2023-04-28T19:03:46.159Z,1.90
2023-04-28T19:06:13.958Z,1.70
2023-04-28T19:08:42.977Z,2.20
2023-04-28T19:11:10.736Z,2.20
2023-04-28T19:13:38.042Z,2.40
2023-04-28T19:16:05.634Z,2.40
2023-04-28T19:18:33.253Z,2.80
2023-04-28T19:21:04.394Z,2.20
2023-04-28T19:23:32.598Z,2.30
2023-04-28T19:26:00.211Z,2.30
2023-04-28T19:28:28.855Z,2.70
2023-04-28T19:30:57.228Z,2.50
2023-04-28T19:33:27.100Z,2.70
2023-04-28T19:35:55.471Z,2.60
2023-04-28T19:38:23.474Z,2.40
2023-04-28T19:45:46.834Z,1.80
2023-04-28T19:48:14.655Z,2.30
2023-04-28T19:50:42.321Z,1.80
2023-04-28T19:53:09.611Z,2.30
2023-04-28T19:55:37.105Z,2.30
2023-04-28T19:58:06.083Z,2.50
2023-04-28T20:00:33.243Z,2.30
2023-04-28T20:03:00.441Z,2.30
2023-04-28T20:05:28.985Z,2.30
2023-04-28T20:07:56.503Z,2.50
2023-04-28T20:10:24.491Z,2.60
2023-04-28T20:15:19.742Z,2.30
2023-04-28T20:17:47.345Z,2.40
2023-04-28T20:20:14.569Z,2.10
2023-04-28T20:22:42.113Z,2.00
2023-04-28T20:25:10.884Z,2.20
2023-04-28T20:27:37.947Z,2.20
2023-04-28T20:30:05.923Z,2.10
2023-04-28T20:32:33.167Z,2.10
2023-04-28T20:35:01.810Z,2.50
2023-04-28T20:37:30.193Z,2.10
2023-04-28T20:39:57.264Z,2.30
2023-04-28T20:42:25.093Z,1.90
2023-04-28T20:44:53.015Z,1.70
2023-04-28T20:47:20.444Z,2.20
2023-04-28T20:49:48.333Z,2.30
2023-04-28T20:52:15.422Z,2.10
2023-04-28T20:54:43.839Z,2.40
2023-04-28T20:57:11.397Z,2.20
2023-04-28T20:59:38.611Z,2.20
2023-04-28T21:02:05.770Z,1.90
2023-04-28T21:04:32.957Z,2.30
2023-04-28T21:07:00.301Z,1.90
2023-04-28T21:09:27.377Z,1.80
2023-04-28T21:11:55.260Z,2.10
2023-04-28T21:16:49.994Z,2.10
2023-04-28T21:19:17.545Z,2.30
2023-04-28T21:21:44.582Z,2.10
2023-04-28T21:24:12.701Z,2.40
2023-04-28T21:26:39.942Z,2.70
2023-04-28T21:29:08.293Z,2.70
2023-04-28T21:31:35.433Z,2.80
2023-04-28T21:34:02.429Z,2.60
2023-04-28T21:36:30.750Z,3.50
2023-04-28T21:38:57.858Z,3.70
2023-04-28T21:41:25.595Z,2.60
2023-04-28T21:43:53.113Z,2.50
2023-04-28T21:46:20.199Z,2.70
2023-04-28T21:48:47.563Z,2.90
2023-04-28T21:51:15.565Z,3.00
2023-04-28T21:56:09.804Z,3.20
2023-04-28T21:58:36.826Z,3.30
2023-04-28T22:01:05.159Z,3.40
2023-04-28T22:03:35.192Z,3.20
2023-04-28T22:06:02.528Z,3.30
2023-04-28T22:08:31.008Z,2.90
2023-04-28T22:10:58.295Z,3.00
2023-04-28T22:13:25.677Z,2.90
2023-04-28T22:15:52.830Z,3.20
2023-04-28T22:18:20.485Z,2.20
2023-04-28T22:20:47.989Z,2.60
2023-04-28T22:23:15.301Z,2.90
2023-04-28T22:25:42.656Z,2.40
2023-04-28T22:28:09.802Z,2.50
2023-04-28T22:30:36.954Z,2.60
2023-04-28T22:33:04.036Z,3.00
2023-04-28T22:35:31.379Z,2.40
2023-04-28T22:37:58.518Z,2.40
2023-04-28T22:40:25.704Z,2.20
2023-04-28T22:42:52.751Z,2.30
2023-04-28T22:45:19.905Z,2.60
2023-04-28T22:47:47.121Z,2.80
2023-04-28T22:50:14.353Z,2.30
2023-04-28T22:52:41.653Z,1.90
2023-04-28T22:55:08.977Z,1.90
2023-04-28T22:57:36.635Z,1.50
2023-04-28T23:00:04.203Z,2.20
2023-04-28T23:02:31.425Z,1.70
2023-04-28T23:04:59.242Z,1.70
2023-04-28T23:07:26.272Z,2.00
2023-04-28T23:09:53.482Z,2.00
2023-04-28T23:12:21.327Z,1.50
2023-04-28T23:14:48.448Z,2.00
2023-04-28T23:17:15.539Z,1.80
2023-04-28T23:19:42.501Z,2.00
2023-04-28T23:22:09.552Z,2.00
2023-04-28T23:24:37.346Z,2.00
2023-04-28T23:27:05.143Z,2.20
2023-04-28T23:29:32.981Z,2.00
2023-04-28T23:34:27.209Z,1.70
2023-04-28T23:36:54.299Z,1.90
2023-04-28T23:39:21.938Z,1.70
2023-04-28T23:41:49.093Z,2.00
2023-04-28T23:44:16.136Z,1.80
2023-04-28T23:46:43.582Z,2.10
2023-04-28T23:49:10.653Z,1.80
2023-04-28T23:51:37.737Z,2.10
2023-04-28T23:54:04.807Z,1.70
2023-04-28T23:56:32.109Z,1.80
2023-04-28T23:58:59.260Z,1.50
